Overview Statistics Trail Chart Weather Telemetry Raw packets
 

This is the latest recevied weather packets stored in our database for station/object SR3AK-10. If no packets are shown the sender has not sent any weather packets the latest 10 day(s).

<< 19 20 21 22 23 24 25 >>
Time Temp. Humidity Pressure Rain* Wind** Luminosity Snow
1777187228 16.11° C 55% 1016.4 hPa - - - -
1777186328 16.67° C 54% 1016.2 hPa - - - -
1777185427 16.11° C 55% 1016.1 hPa - - - -
1777184527 14.44° C 59% 1015.9 hPa - - - -
1777183627 13.33° C 62% 1015.5 hPa - - - -
1777182726 13.89° C 61% 1015.4 hPa - - - -
1777181826 14.44° C 59% 1015.3 hPa - - - -
1777180926 15° C 57% 1015.1 hPa - - - -
1777180026 14.44° C 58% 1014.7 hPa - - - -
1777179126 12.78° C 63% 1014.4 hPa - - - -
1777178225 12.78° C 64% 1013.9 hPa - - - -
1777177324 12.78° C 65% 1013.6 hPa - - - -
1777176424 12.78° C 65% 1013.2 hPa - - - -
1777175523 12.78° C 65% 1012.8 hPa - - - -
1777174623 12.78° C 65% 1012.5 hPa - - - -
1777173722 12.78° C 65% 1012.3 hPa - - - -
1777172822 12.78° C 65% 1012 hPa - - - -
1777171922 12.78° C 65% 1011.8 hPa - - - -
1777171021 12.78° C 65% 1011.5 hPa - - - -
1777170121 12.78° C 65% 1011.1 hPa - - - -
1777169221 12.78° C 65% 1010.9 hPa - - - -
1777168319 12.78° C 65% 1010.6 hPa - - - -
1777167419 12.78° C 65% 1010.3 hPa - - - -
1777166519 13.33° C 65% 1010.1 hPa - - - -
1777165618 13.33° C 65% 1009.8 hPa - - - -

* Rain since midnight (hover to see other rain measurements)
** Current wind speed in m/s (hover to see current wind gust speed)